sensor_id;sensor_type;location;lat;lon;timestamp;pressure;altitude;pressure_sealevel;temperature;humidity
39443;BME280;25147;52.142;9.960;2023-04-22T00:00:05;100070.72;;;11.56;63.76
39443;BME280;25147;52.142;9.960;2023-04-22T00:02:33;100100.00;;;11.73;63.96
39443;BME280;25147;52.142;9.960;2023-04-22T00:05:01;100098.38;;;11.69;64.22
39443;BME280;25147;52.142;9.960;2023-04-22T00:07:29;100048.75;;;11.27;64.17
39443;BME280;25147;52.142;9.960;2023-04-22T00:09:56;100084.59;;;11.61;64.52
39443;BME280;25147;52.142;9.960;2023-04-22T00:12:23;100077.72;;;11.57;64.72
39443;BME280;25147;52.142;9.960;2023-04-22T00:14:50;99798.16;;;9.89;64.60
39443;BME280;25147;52.142;9.960;2023-04-22T00:17:16;100010.53;;;11.18;64.66
39443;BME280;25147;52.142;9.960;2023-04-22T00:19:43;99915.91;;;10.62;64.77
39443;BME280;25147;52.142;9.960;2023-04-22T00:22:10;100045.06;;;11.36;64.82
39443;BME280;25147;52.142;9.960;2023-04-22T00:24:38;99988.31;;;10.99;64.86
39443;BME280;25147;52.142;9.960;2023-04-22T00:27:05;100022.34;;;11.00;65.00
39443;BME280;25147;52.142;9.960;2023-04-22T00:29:32;99966.13;;;10.78;65.51
39443;BME280;25147;52.142;9.960;2023-04-22T00:31:59;99971.31;;;10.81;66.12
39443;BME280;25147;52.142;9.960;2023-04-22T00:34:26;99999.06;;;10.88;66.97
39443;BME280;25147;52.142;9.960;2023-04-22T00:36:53;100098.53;;;11.27;67.00
39443;BME280;25147;52.142;9.960;2023-04-22T00:39:19;99808.69;;;9.47;67.87
39443;BME280;25147;52.142;9.960;2023-04-22T00:41:48;99531.16;;;7.78;67.99
39443;BME280;25147;52.142;9.960;2023-04-22T00:44:16;100097.56;;;10.95;68.29
39443;BME280;25147;52.142;9.960;2023-04-22T00:46:44;99784.25;;;9.07;68.70
39443;BME280;25147;52.142;9.960;2023-04-22T00:49:11;100075.19;;;10.80;68.97
39443;BME280;25147;52.142;9.960;2023-04-22T00:51:37;100006.63;;;10.22;69.32
39443;BME280;25147;52.142;9.960;2023-04-22T00:54:04;99887.84;;;9.52;69.72
39443;BME280;25147;52.142;9.960;2023-04-22T00:56:32;99981.84;;;10.00;70.26
39443;BME280;25147;52.142;9.960;2023-04-22T00:59:03;99934.00;;;9.53;70.75
39443;BME280;25147;52.142;9.960;2023-04-22T01:01:30;100072.56;;;10.40;71.68
39443;BME280;25147;52.142;9.960;2023-04-22T01:03:57;100013.59;;;9.80;72.22
39443;BME280;25147;52.142;9.960;2023-04-22T01:06:26;99940.44;;;9.33;72.55
39443;BME280;25147;52.142;9.960;2023-04-22T01:08:55;99953.34;;;9.42;73.02
39443;BME280;25147;52.142;9.960;2023-04-22T01:11:22;99965.75;;;9.30;73.46
39443;BME280;25147;52.142;9.960;2023-04-22T01:13:49;99634.34;;;7.37;73.74
39443;BME280;25147;52.142;9.960;2023-04-22T01:16:18;99889.03;;;8.89;73.83
39443;BME280;25147;52.142;9.960;2023-04-22T01:18:44;100051.81;;;9.87;73.84
39443;BME280;25147;52.142;9.960;2023-04-22T01:21:11;100047.59;;;9.80;73.88
39443;BME280;25147;52.142;9.960;2023-04-22T01:23:39;100076.84;;;9.99;74.48
39443;BME280;25147;52.142;9.960;2023-04-22T01:26:06;99998.50;;;9.51;74.29
39443;BME280;25147;52.142;9.960;2023-04-22T01:28:33;100074.19;;;10.02;74.10
39443;BME280;25147;52.142;9.960;2023-04-22T01:31:00;99693.66;;;7.72;74.29
39443;BME280;25147;52.142;9.960;2023-04-22T01:33:28;100038.91;;;9.78;74.51
39443;BME280;25147;52.142;9.960;2023-04-22T01:35:54;99921.84;;;9.03;74.51
39443;BME280;25147;52.142;9.960;2023-04-22T01:38:22;99933.91;;;9.11;74.46
39443;BME280;25147;52.142;9.960;2023-04-22T01:40:50;100071.69;;;9.96;75.06
39443;BME280;25147;52.142;9.960;2023-04-22T01:43:17;100065.69;;;9.91;74.87
39443;BME280;25147;52.142;9.960;2023-04-22T01:45:43;99919.41;;;8.93;75.11
39443;BME280;25147;52.142;9.960;2023-04-22T01:48:11;99933.94;;;9.08;75.86
39443;BME280;25147;52.142;9.960;2023-04-22T01:50:37;100010.78;;;9.44;76.50
39443;BME280;25147;52.142;9.960;2023-04-22T01:53:06;100071.22;;;9.75;76.51
39443;BME280;25147;52.142;9.960;2023-04-22T01:55:32;100066.94;;;9.71;76.44
39443;BME280;25147;52.142;9.960;2023-04-22T01:58:02;100072.09;;;9.74;76.31
39443;BME280;25147;52.142;9.960;2023-04-22T02:00:29;100069.50;;;9.73;76.19
39443;BME280;25147;52.142;9.960;2023-04-22T02:02:55;100059.22;;;9.63;76.43
39443;BME280;25147;52.142;9.960;2023-04-22T02:05:22;100066.84;;;9.74;76.42
39443;BME280;25147;52.142;9.960;2023-04-22T02:07:50;100070.31;;;9.76;76.15
39443;BME280;25147;52.142;9.960;2023-04-22T02:10:17;100063.31;;;9.77;76.18
39443;BME280;25147;52.142;9.960;2023-04-22T02:12:44;99991.88;;;9.31;76.12
39443;BME280;25147;52.142;9.960;2023-04-22T02:15:12;100078.97;;;9.80;76.03
39443;BME280;25147;52.142;9.960;2023-04-22T02:17:40;99949.72;;;9.01;76.18
39443;BME280;25147;52.142;9.960;2023-04-22T02:20:08;100065.78;;;9.84;76.16
39443;BME280;25147;52.142;9.960;2023-04-22T02:22:36;100060.63;;;9.81;76.34
39443;BME280;25147;52.142;9.960;2023-04-22T02:25:03;100060.69;;;9.77;76.37
39443;BME280;25147;52.142;9.960;2023-04-22T02:27:30;100028.06;;;9.53;76.66
39443;BME280;25147;52.142;9.960;2023-04-22T02:29:57;100046.84;;;9.73;76.49
39443;BME280;25147;52.142;9.960;2023-04-22T02:32:25;99970.31;;;9.20;76.23
39443;BME280;25147;52.142;9.960;2023-04-22T02:34:51;99838.44;;;8.46;76.24
39443;BME280;25147;52.142;9.960;2023-04-22T02:37:18;100057.34;;;9.70;76.55
39443;BME280;25147;52.142;9.960;2023-04-22T02:39:46;100051.31;;;9.67;76.99
39443;BME280;25147;52.142;9.960;2023-04-22T02:42:12;100046.28;;;9.57;77.14
39443;BME280;25147;52.142;9.960;2023-04-22T02:44:39;100073.31;;;9.55;77.45
39443;BME280;25147;52.142;9.960;2023-04-22T02:47:06;100053.41;;;9.48;77.72
39443;BME280;25147;52.142;9.960;2023-04-22T02:49:34;100053.50;;;9.43;77.87
39443;BME280;25147;52.142;9.960;2023-04-22T02:52:00;100053.59;;;9.38;78.36
39443;BME280;25147;52.142;9.960;2023-04-22T02:54:27;99984.66;;;8.94;78.32
39443;BME280;25147;52.142;9.960;2023-04-22T02:56:54;100055.47;;;9.30;78.63
39443;BME280;25147;52.142;9.960;2023-04-22T02:59:22;99937.38;;;8.60;79.14
39443;BME280;25147;52.142;9.960;2023-04-22T03:01:48;99897.84;;;8.27;79.04
39443;BME280;25147;52.142;9.960;2023-04-22T03:04:15;100058.19;;;9.22;79.49
39443;BME280;25147;52.142;9.960;2023-04-22T03:06:43;100017.66;;;8.98;79.38
39443;BME280;25147;52.142;9.960;2023-04-22T03:09:10;99956.41;;;8.67;79.86
39443;BME280;25147;52.142;9.960;2023-04-22T03:11:36;100041.38;;;8.86;80.50
39443;BME280;25147;52.142;9.960;2023-04-22T03:14:03;99864.50;;;7.92;80.99
39443;BME280;25147;52.142;9.960;2023-04-22T03:16:30;99887.97;;;7.90;81.30
39443;BME280;25147;52.142;9.960;2023-04-22T03:18:57;99957.09;;;8.17;81.69
39443;BME280;25147;52.142;9.960;2023-04-22T03:21:23;99840.72;;;7.51;82.14
39443;BME280;25147;52.142;9.960;2023-04-22T03:23:52;100006.38;;;8.37;82.90
39443;BME280;25147;52.142;9.960;2023-04-22T03:26:19;99647.97;;;6.22;82.99
39443;BME280;25147;52.142;9.960;2023-04-22T03:28:46;100040.22;;;8.45;83.95
39443;BME280;25147;52.142;9.960;2023-04-22T03:31:12;100041.00;;;8.52;84.39
39443;BME280;25147;52.142;9.960;2023-04-22T03:33:39;99854.84;;;7.32;84.51
39443;BME280;25147;52.142;9.960;2023-04-22T03:36:06;100045.44;;;8.45;84.64
39443;BME280;25147;52.142;9.960;2023-04-22T03:38:33;99859.38;;;7.14;84.93
39443;BME280;25147;52.142;9.960;2023-04-22T03:41:01;99974.97;;;7.78;85.44
39443;BME280;25147;52.142;9.960;2023-04-22T03:43:28;100060.44;;;8.24;85.84
39443;BME280;25147;52.142;9.960;2023-04-22T03:45:54;99795.81;;;6.59;85.96
39443;BME280;25147;52.142;9.960;2023-04-22T03:48:21;99801.03;;;6.58;86.29
39443;BME280;25147;52.142;9.960;2023-04-22T03:50:48;100064.94;;;8.12;87.34
39443;BME280;25147;52.142;9.960;2023-04-22T03:53:15;100072.81;;;8.09;87.67
39443;BME280;25147;52.142;9.960;2023-04-22T03:55:41;99837.31;;;6.70;87.91
39443;BME280;25147;52.142;9.960;2023-04-22T03:58:09;99839.97;;;6.62;87.84
39443;BME280;25147;52.142;9.960;2023-04-22T04:00:36;99919.22;;;7.17;87.84
39443;BME280;25147;52.142;9.960;2023-04-22T04:03:03;99883.22;;;6.73;88.06
39443;BME280;25147;52.142;9.960;2023-04-22T04:05:30;100016.72;;;7.74;88.28
39443;BME280;25147;52.142;9.960;2023-04-22T04:07:56;100076.34;;;8.01;88.55
39443;BME280;25147;52.142;9.960;2023-04-22T04:10:23;99978.72;;;7.53;88.43
39443;BME280;25147;52.142;9.960;2023-04-22T04:12:50;100052.88;;;8.01;88.73
39443;BME280;25147;52.142;9.960;2023-04-22T04:15:18;99872.56;;;6.99;88.57
39443;BME280;25147;52.142;9.960;2023-04-22T04:17:45;99862.28;;;6.88;88.42
39443;BME280;25147;52.142;9.960;2023-04-22T04:20:13;100052.03;;;8.02;88.65
39443;BME280;25147;52.142;9.960;2023-04-22T04:22:39;100064.16;;;8.03;88.74
39443;BME280;25147;52.142;9.960;2023-04-22T04:25:07;100014.91;;;7.79;88.45
39443;BME280;25147;52.142;9.960;2023-04-22T04:27:35;99826.84;;;6.75;88.57
39443;BME280;25147;52.142;9.960;2023-04-22T04:30:04;100040.69;;;8.07;88.47
39443;BME280;25147;52.142;9.960;2023-04-22T04:32:32;99996.66;;;7.80;88.55
39443;BME280;25147;52.142;9.960;2023-04-22T04:35:00;100044.13;;;8.10;88.66
39443;BME280;25147;52.142;9.960;2023-04-22T04:37:27;100041.47;;;8.12;88.54
39443;BME280;25147;52.142;9.960;2023-04-22T04:39:54;100038.78;;;8.18;88.25
39443;BME280;25147;52.142;9.960;2023-04-22T04:42:23;100036.97;;;8.24;88.07
39443;BME280;25147;52.142;9.960;2023-04-22T04:44:51;100032.53;;;8.33;87.77
39443;BME280;25147;52.142;9.960;2023-04-22T04:47:18;99969.53;;;7.98;87.67
39443;BME280;25147;52.142;9.960;2023-04-22T04:49:46;99828.81;;;7.30;87.09
39443;BME280;25147;52.142;9.960;2023-04-22T04:52:13;99956.41;;;8.06;86.84
39443;BME280;25147;52.142;9.960;2023-04-22T04:54:39;100022.56;;;8.62;86.46
39443;BME280;25147;52.142;9.960;2023-04-22T04:57:06;99958.00;;;8.16;86.15
39443;BME280;25147;52.142;9.960;2023-04-22T04:59:34;99964.84;;;8.22;86.19
39443;BME280;25147;52.142;9.960;2023-04-22T05:02:01;99894.75;;;8.02;86.36
39443;BME280;25147;52.142;9.960;2023-04-22T05:04:27;100031.69;;;8.93;86.23
39443;BME280;25147;52.142;9.960;2023-04-22T05:06:55;99843.66;;;7.92;85.91
39443;BME280;25147;52.142;9.960;2023-04-22T05:09:22;100029.50;;;9.19;85.55
39443;BME280;25147;52.142;9.960;2023-04-22T05:11:49;99683.16;;;7.21;84.87
39443;BME280;25147;52.142;9.960;2023-04-22T05:14:15;99963.50;;;9.10;84.46
39443;BME280;25147;52.142;9.960;2023-04-22T05:16:42;100026.00;;;9.69;83.91
39443;BME280;25147;52.142;9.960;2023-04-22T05:19:09;100017.84;;;9.86;83.27
39443;BME280;25147;52.142;9.960;2023-04-22T05:21:35;99944.44;;;9.53;82.22
39443;BME280;25147;52.142;9.960;2023-04-22T05:24:04;99773.63;;;8.73;81.38
39443;BME280;25147;52.142;9.960;2023-04-22T05:26:31;99665.06;;;8.19;80.62
39443;BME280;25147;52.142;9.960;2023-04-22T05:28:57;99890.16;;;9.67;79.70
39443;BME280;25147;52.142;9.960;2023-04-22T05:31:24;100016.19;;;10.66;79.33
39443;BME280;25147;52.142;9.960;2023-04-22T05:33:51;99790.47;;;9.43;78.14
39443;BME280;25147;52.142;9.960;2023-04-22T05:36:18;100020.63;;;10.99;77.56
39443;BME280;25147;52.142;9.960;2023-04-22T05:38:44;99978.19;;;10.85;76.77
39443;BME280;25147;52.142;9.960;2023-04-22T05:41:12;99853.41;;;10.12;76.21
39443;BME280;25147;52.142;9.960;2023-04-22T05:43:39;100013.09;;;11.21;75.76
39443;BME280;25147;52.142;9.960;2023-04-22T05:46:06;99948.50;;;10.84;75.29
39443;BME280;25147;52.142;9.960;2023-04-22T05:48:32;100020.53;;;11.38;75.18
39443;BME280;25147;52.142;9.960;2023-04-22T05:50:59;99923.28;;;10.82;74.25
39443;BME280;25147;52.142;9.960;2023-04-22T05:53:26;99943.03;;;10.95;74.21
39443;BME280;25147;52.142;9.960;2023-04-22T05:55:52;99948.41;;;10.89;74.13
39443;BME280;25147;52.142;9.960;2023-04-22T05:58:20;100027.22;;;11.50;73.76
39443;BME280;25147;52.142;9.960;2023-04-22T06:00:47;99834.53;;;10.37;73.30
39443;BME280;25147;52.142;9.960;2023-04-22T06:03:14;100030.56;;;11.55;73.00
39443;BME280;25147;52.142;9.960;2023-04-22T06:05:40;99609.25;;;9.10;72.76
39443;BME280;25147;52.142;9.960;2023-04-22T06:08:08;99885.78;;;10.80;72.80
39443;BME280;25147;52.142;9.960;2023-04-22T06:10:35;99749.88;;;10.03;72.49
39443;BME280;25147;52.142;9.960;2023-04-22T06:13:02;99775.75;;;10.14;72.26
39443;BME280;25147;52.142;9.960;2023-04-22T06:15:30;99734.25;;;10.00;71.81
39443;BME280;25147;52.142;9.960;2023-04-22T06:17:58;99903.88;;;11.23;71.44
39443;BME280;25147;52.142;9.960;2023-04-22T06:20:25;99930.50;;;11.39;71.02
39443;BME280;25147;52.142;9.960;2023-04-22T06:22:52;100010.13;;;12.01;70.46
39443;BME280;25147;52.142;9.960;2023-04-22T06:25:19;99899.78;;;11.44;70.07
39443;BME280;25147;52.142;9.960;2023-04-22T06:27:45;99834.97;;;11.20;69.75
39443;BME280;25147;52.142;9.960;2023-04-22T06:30:12;99954.06;;;12.03;68.99
39443;BME280;25147;52.142;9.960;2023-04-22T06:32:41;100002.22;;;12.31;68.79
39443;BME280;25147;52.142;9.960;2023-04-22T06:35:10;99692.22;;;10.74;68.55
39443;BME280;25147;52.142;9.960;2023-04-22T06:37:37;99898.97;;;12.03;68.06
39443;BME280;25147;52.142;9.960;2023-04-22T06:40:06;100018.84;;;12.88;67.92
39443;BME280;25147;52.142;9.960;2023-04-22T06:42:32;99849.78;;;11.80;67.59
39443;BME280;25147;52.142;9.960;2023-04-22T06:44:59;100003.09;;;12.88;67.32
39443;BME280;25147;52.142;9.960;2023-04-22T06:47:26;99836.16;;;11.99;66.87
39443;BME280;25147;52.142;9.960;2023-04-22T06:49:54;99668.91;;;10.94;66.56
39443;BME280;25147;52.142;9.960;2023-04-22T06:52:21;99821.84;;;12.09;66.07
39443;BME280;25147;52.142;9.960;2023-04-22T06:54:47;100006.00;;;13.33;65.94
39443;BME280;25147;52.142;9.960;2023-04-22T06:57:14;100025.91;;;13.40;65.63
39443;BME280;25147;52.142;9.960;2023-04-22T06:59:41;99994.97;;;13.47;65.41
39443;BME280;25147;52.142;9.960;2023-04-22T07:02:08;99988.66;;;13.53;65.16
39443;BME280;25147;52.142;9.960;2023-04-22T07:04:40;99890.63;;;12.99;64.74
39443;BME280;25147;52.142;9.960;2023-04-22T07:07:10;99832.88;;;12.72;64.62
39443;BME280;25147;52.142;9.960;2023-04-22T07:09:38;99916.78;;;13.27;64.47
39443;BME280;25147;52.142;9.960;2023-04-22T07:12:05;99874.50;;;13.08;64.11
39443;BME280;25147;52.142;9.960;2023-04-22T07:14:32;100003.69;;;13.98;63.58
39443;BME280;25147;52.142;9.960;2023-04-22T07:16:59;99990.84;;;13.90;63.59
39443;BME280;25147;52.142;9.960;2023-04-22T07:19:25;100001.72;;;14.04;63.61
39443;BME280;25147;52.142;9.960;2023-04-22T07:21:52;100003.47;;;14.04;63.58
39443;BME280;25147;52.142;9.960;2023-04-22T07:24:21;99993.81;;;14.04;63.70
39443;BME280;25147;52.142;9.960;2023-04-22T07:26:48;99991.09;;;14.06;63.70
39443;BME280;25147;52.142;9.960;2023-04-22T07:29:14;99996.38;;;14.06;63.78
39443;BME280;25147;52.142;9.960;2023-04-22T07:31:41;99618.91;;;11.83;63.74
39443;BME280;25147;52.142;9.960;2023-04-22T07:34:08;99987.38;;;14.12;63.96
39443;BME280;25147;52.142;9.960;2023-04-22T07:36:35;99885.50;;;13.44;63.59
39443;BME280;25147;52.142;9.960;2023-04-22T07:39:02;99993.03;;;14.24;63.79
39443;BME280;25147;52.142;9.960;2023-04-22T07:41:30;99928.72;;;13.86;63.77
39443;BME280;25147;52.142;9.960;2023-04-22T07:43:57;99820.97;;;13.36;63.91
39443;BME280;25147;52.142;9.960;2023-04-22T07:46:23;99996.91;;;14.38;63.77
39443;BME280;25147;52.142;9.960;2023-04-22T07:48:50;99924.63;;;14.01;63.49
39443;BME280;25147;52.142;9.960;2023-04-22T07:51:17;99996.59;;;14.47;63.51
39443;BME280;25147;52.142;9.960;2023-04-22T07:53:44;99893.47;;;13.90;63.21
39443;BME280;25147;52.142;9.960;2023-04-22T07:56:11;99972.13;;;14.43;62.81
39443;BME280;25147;52.142;9.960;2023-04-22T07:58:39;99993.09;;;14.69;62.77
39443;BME280;25147;52.142;9.960;2023-04-22T08:01:06;99989.44;;;14.73;63.07
39443;BME280;25147;52.142;9.960;2023-04-22T08:03:32;99861.41;;;14.02;62.80
39443;BME280;25147;52.142;9.960;2023-04-22T08:05:59;99987.03;;;14.89;62.20
39443;BME280;25147;52.142;9.960;2023-04-22T08:08:26;99804.94;;;13.88;62.19
39443;BME280;25147;52.142;9.960;2023-04-22T08:10:53;99963.19;;;14.92;62.17
39443;BME280;25147;52.142;9.960;2023-04-22T08:13:19;99980.22;;;15.05;61.45
39443;BME280;25147;52.142;9.960;2023-04-22T08:15:47;99902.09;;;14.61;61.72
39443;BME280;25147;52.142;9.960;2023-04-22T08:18:14;100004.47;;;15.13;61.91
39443;BME280;25147;52.142;9.960;2023-04-22T08:20:41;99985.91;;;15.16;61.86
39443;BME280;25147;52.142;9.960;2023-04-22T08:23:08;99968.41;;;15.14;61.89
39443;BME280;25147;52.142;9.960;2023-04-22T08:25:35;99828.50;;;14.35;61.83
39443;BME280;25147;52.142;9.960;2023-04-22T08:28:09;99890.25;;;14.72;61.99
39443;BME280;25147;52.142;9.960;2023-04-22T08:30:36;99975.41;;;15.35;61.88
39443;BME280;25147;52.142;9.960;2023-04-22T08:33:04;99965.44;;;15.42;61.51
39443;BME280;25147;52.142;9.960;2023-04-22T08:35:34;99953.47;;;15.35;61.37
39443;BME280;25147;52.142;9.960;2023-04-22T08:38:01;99967.34;;;15.59;60.65
39443;BME280;25147;52.142;9.960;2023-04-22T08:40:28;99969.53;;;15.70;60.61
39443;BME280;25147;52.142;9.960;2023-04-22T08:42:55;99977.94;;;15.79;60.31
39443;BME280;25147;52.142;9.960;2023-04-22T08:45:22;99964.34;;;15.87;59.96
39443;BME280;25147;52.142;9.960;2023-04-22T08:47:50;99902.66;;;15.50;59.88
39443;BME280;25147;52.142;9.960;2023-04-22T08:50:20;99961.03;;;16.02;58.97
39443;BME280;25147;52.142;9.960;2023-04-22T08:52:46;99915.38;;;15.81;59.05
39443;BME280;25147;52.142;9.960;2023-04-22T08:55:13;99903.44;;;15.71;58.73
39443;BME280;25147;52.142;9.960;2023-04-22T08:57:40;99871.72;;;15.54;58.23
39443;BME280;25147;52.142;9.960;2023-04-22T09:00:08;99969.16;;;16.17;58.00
39443;BME280;25147;52.142;9.960;2023-04-22T09:02:36;99973.50;;;16.18;57.98
39443;BME280;25147;52.142;9.960;2023-04-22T09:05:05;99958.44;;;16.20;58.08
39443;BME280;25147;52.142;9.960;2023-04-22T09:07:33;99890.72;;;15.81;58.01
39443;BME280;25147;52.142;9.960;2023-04-22T09:10:01;99899.63;;;15.97;57.81
39443;BME280;25147;52.142;9.960;2023-04-22T09:12:28;99924.56;;;16.11;57.77
39443;BME280;25147;52.142;9.960;2023-04-22T09:14:55;99940.94;;;16.36;58.11
39443;BME280;25147;52.142;9.960;2023-04-22T09:17:29;99942.50;;;16.40;58.19
39443;BME280;25147;52.142;9.960;2023-04-22T09:19:57;99925.97;;;16.37;57.94
39443;BME280;25147;52.142;9.960;2023-04-22T09:22:25;99831.75;;;15.82;57.47
39443;BME280;25147;52.142;9.960;2023-04-22T09:24:56;99486.56;;;13.88;57.12
39443;BME280;25147;52.142;9.960;2023-04-22T09:27:47;99546.66;;;14.36;56.86
39443;BME280;25147;52.142;9.960;2023-04-22T09:30:43;99929.00;;;16.83;56.46
39443;BME280;25147;52.142;9.960;2023-04-22T09:33:24;99773.22;;;15.91;55.67
39443;BME280;25147;52.142;9.960;2023-04-22T09:35:51;99515.03;;;14.57;55.35
39443;BME280;25147;52.142;9.960;2023-04-22T09:38:20;99955.09;;;17.08;55.09
39443;BME280;25147;52.142;9.960;2023-04-22T09:40:57;99951.03;;;17.18;54.31
39443;BME280;25147;52.142;9.960;2023-04-22T09:43:32;99757.97;;;16.33;54.07
39443;BME280;25147;52.142;9.960;2023-04-22T09:46:11;99835.38;;;16.87;54.04
39443;BME280;25147;52.142;9.960;2023-04-22T09:48:46;99515.75;;;14.97;53.71
39443;BME280;25147;52.142;9.960;2023-04-22T09:51:18;99859.50;;;16.98;54.04
39443;BME280;25147;52.142;9.960;2023-04-22T09:53:59;99685.88;;;16.13;54.25
39443;BME280;25147;52.142;9.960;2023-04-22T09:57:00;99595.72;;;15.69;54.04
39443;BME280;25147;52.142;9.960;2023-04-22T09:59:41;99635.81;;;15.94;53.86
39443;BME280;25147;52.142;9.960;2023-04-22T10:02:08;99890.66;;;17.76;53.34
39443;BME280;25147;52.142;9.960;2023-04-22T10:04:40;99890.22;;;17.85;53.06
39443;BME280;25147;52.142;9.960;2023-04-22T10:07:08;99838.38;;;17.48;53.52
39443;BME280;25147;52.142;9.960;2023-04-22T10:09:35;99764.84;;;17.21;52.66
39443;BME280;25147;52.142;9.960;2023-04-22T10:12:04;99899.34;;;18.11;52.63
39443;BME280;25147;52.142;9.960;2023-04-22T10:14:31;99886.94;;;18.28;52.05
39443;BME280;25147;52.142;9.960;2023-04-22T10:16:59;99872.75;;;18.44;51.57
39443;BME280;25147;52.142;9.960;2023-04-22T10:19:28;99871.63;;;18.49;51.43
39443;BME280;25147;52.142;9.960;2023-04-22T10:21:59;99670.81;;;17.31;51.22
39443;BME280;25147;52.142;9.960;2023-04-22T10:24:27;99856.03;;;18.58;50.95
39443;BME280;25147;52.142;9.960;2023-04-22T10:26:56;99873.28;;;18.81;50.63
39443;BME280;25147;52.142;9.960;2023-04-22T10:29:26;99867.00;;;18.82;50.67
39443;BME280;25147;52.142;9.960;2023-04-22T10:31:54;99873.84;;;18.87;50.31
39443;BME280;25147;52.142;9.960;2023-04-22T10:34:22;99810.75;;;18.47;50.69
39443;BME280;25147;52.142;9.960;2023-04-22T10:36:54;99876.25;;;18.91;50.88
39443;BME280;25147;52.142;9.960;2023-04-22T10:39:23;99868.56;;;19.01;50.56
39443;BME280;25147;52.142;9.960;2023-04-22T10:41:52;99792.53;;;18.71;50.17
39443;BME280;25147;52.142;9.960;2023-04-22T10:44:20;99879.69;;;19.22;50.34
39443;BME280;25147;52.142;9.960;2023-04-22T10:47:00;99848.50;;;19.11;49.91
39443;BME280;25147;52.142;9.960;2023-04-22T10:49:30;99846.41;;;19.16;49.82
39443;BME280;25147;52.142;9.960;2023-04-22T10:51:58;99881.31;;;19.39;49.77
39443;BME280;25147;52.142;9.960;2023-04-22T10:54:57;99869.25;;;19.48;49.09
39443;BME280;25147;52.142;9.960;2023-04-22T10:57:40;99870.22;;;19.47;48.95
39443;BME280;25147;52.142;9.960;2023-04-22T11:00:22;99864.91;;;19.47;48.41
39443;BME280;25147;52.142;9.960;2023-04-22T11:02:53;99826.16;;;19.30;48.39
39443;BME280;25147;52.142;9.960;2023-04-22T11:05:22;99823.38;;;19.17;48.52
39443;BME280;25147;52.142;9.960;2023-04-22T11:07:53;99863.47;;;19.55;48.47
39443;BME280;25147;52.142;9.960;2023-04-22T11:10:32;99656.72;;;18.52;48.10
39443;BME280;25147;52.142;9.960;2023-04-22T11:12:59;99840.44;;;19.70;48.28
39443;BME280;25147;52.142;9.960;2023-04-22T11:15:28;99802.84;;;19.62;48.78
39443;BME280;25147;52.142;9.960;2023-04-22T11:17:57;99791.88;;;19.54;48.36
39443;BME280;25147;52.142;9.960;2023-04-22T11:20:24;99794.53;;;19.82;48.33
39443;BME280;25147;52.142;9.960;2023-04-22T11:22:52;99820.25;;;20.09;47.78
39443;BME280;25147;52.142;9.960;2023-04-22T11:25:25;99701.50;;;19.28;48.05
39443;BME280;25147;52.142;9.960;2023-04-22T11:27:52;99829.81;;;20.12;47.94
39443;BME280;25147;52.142;9.960;2023-04-22T11:30:21;99729.03;;;19.54;48.41
39443;BME280;25147;52.142;9.960;2023-04-22T11:32:49;99798.28;;;19.93;46.86
39443;BME280;25147;52.142;9.960;2023-04-22T11:35:19;99760.56;;;19.73;46.96
39443;BME280;25147;52.142;9.960;2023-04-22T11:37:47;99825.25;;;20.14;47.53
39443;BME280;25147;52.142;9.960;2023-04-22T11:40:16;99788.19;;;19.98;48.01
39443;BME280;25147;52.142;9.960;2023-04-22T11:42:43;99825.28;;;20.27;47.66
39443;BME280;25147;52.142;9.960;2023-04-22T11:45:10;99819.88;;;20.28;47.37
39443;BME280;25147;52.142;9.960;2023-04-22T11:47:39;99610.19;;;19.03;47.71
39443;BME280;25147;52.142;9.960;2023-04-22T11:50:08;99746.41;;;19.87;47.55
39443;BME280;25147;52.142;9.960;2023-04-22T11:52:49;99736.09;;;19.82;47.54
39443;BME280;25147;52.142;9.960;2023-04-22T11:55:18;99818.06;;;20.29;46.89
39443;BME280;25147;52.142;9.960;2023-04-22T11:57:51;99804.88;;;20.27;47.02
39443;BME280;25147;52.142;9.960;2023-04-22T12:00:18;99548.88;;;18.67;47.37
39443;BME280;25147;52.142;9.960;2023-04-22T12:02:54;99613.31;;;19.10;47.07
39443;BME280;25147;52.142;9.960;2023-04-22T12:05:35;99690.78;;;19.71;46.96
39443;BME280;25147;52.142;9.960;2023-04-22T12:08:06;99741.97;;;20.00;46.36
39443;BME280;25147;52.142;9.960;2023-04-22T12:10:38;99793.88;;;20.46;46.41
39443;BME280;25147;52.142;9.960;2023-04-22T12:13:06;99629.03;;;19.40;46.35
39443;BME280;25147;52.142;9.960;2023-04-22T12:15:41;99758.13;;;20.37;46.04
39443;BME280;25147;52.142;9.960;2023-04-22T12:18:11;99789.34;;;20.61;46.03
39443;BME280;25147;52.142;9.960;2023-04-22T12:20:49;99782.75;;;20.67;45.08
39443;BME280;25147;52.142;9.960;2023-04-22T12:23:25;99681.50;;;20.04;45.16
39443;BME280;25147;52.142;9.960;2023-04-22T12:25:52;99537.63;;;19.44;45.03
39443;BME280;25147;52.142;9.960;2023-04-22T12:28:19;99518.69;;;19.23;45.12
39443;BME280;25147;52.142;9.960;2023-04-22T12:30:46;99610.41;;;20.08;44.69
39443;BME280;25147;52.142;9.960;2023-04-22T12:33:13;99770.19;;;21.20;44.13
39443;BME280;25147;52.142;9.960;2023-04-22T12:35:39;99771.13;;;21.32;44.37
39443;BME280;25147;52.142;9.960;2023-04-22T12:38:06;99685.19;;;20.93;44.03
39443;BME280;25147;52.142;9.960;2023-04-22T12:40:34;99482.19;;;19.65;42.74
39443;BME280;25147;52.142;9.960;2023-04-22T12:43:01;99639.88;;;20.69;43.64
39443;BME280;25147;52.142;9.960;2023-04-22T12:45:30;99759.25;;;21.61;43.23
39443;BME280;25147;52.142;9.960;2023-04-22T12:47:57;99645.88;;;20.96;42.72
39443;BME280;25147;52.142;9.960;2023-04-22T12:50:23;99681.59;;;21.18;42.89
39443;BME280;25147;52.142;9.960;2023-04-22T12:52:50;99763.19;;;21.69;42.43
39443;BME280;25147;52.142;9.960;2023-04-22T12:55:17;99478.63;;;20.05;42.83
39443;BME280;25147;52.142;9.960;2023-04-22T12:57:47;99761.03;;;21.74;42.13
39443;BME280;25147;52.142;9.960;2023-04-22T13:23:31;99682.13;;;21.84;40.81
39443;BME280;25147;52.142;9.960;2023-04-22T13:25:58;99695.13;;;22.00;41.62
39443;BME280;25147;52.142;9.960;2023-04-22T13:28:25;99689.41;;;21.93;42.08